Time;durP1;ratioP1;P1;durP2;ratioP2;P2;SDS_P1;SDS_P2;PMS_P1;PMS_P2;Temp;Humidity;BMP_temperature;BMP_pressure;BME280_temperature;BME280_humidity;BME280_pressure;Samples;Min_cycle;Max_cycle;Signal;HPM_P1;HPM_P2
2021/05/14 00:02:03;;;;;;;19.17;17.40;;;;;;;10.71;82.39;100644.50;6427639;23;20013;-65
2021/05/14 00:04:34;;;;;;;19.13;17.35;;;;;;;10.66;82.62;100645.88;6427666;22;20035;-65
2021/05/14 00:07:06;;;;;;;20.67;18.63;;;;;;;10.63;82.82;100644.34;6427641;23;20001;-65
2021/05/14 00:09:37;;;;;;;19.25;17.45;;;;;;;10.57;82.34;100649.28;6427274;23;20400;-66
2021/05/14 00:12:08;;;;;;;20.38;18.40;;;;;;;10.54;82.94;100645.19;6427449;23;20013;-65
2021/05/14 00:14:40;;;;;;;19.42;17.70;;;;;;;10.55;83.47;100644.19;6428495;22;20016;-65
2021/05/14 00:17:11;;;;;;;20.85;18.85;;;;;;;10.53;83.60;100638.28;6428580;23;20005;-65
2021/05/14 00:19:42;;;;;;;21.13;19.15;;;;;;;10.52;82.79;100646.25;6427431;23;20028;-65
2021/05/14 00:22:13;;;;;;;19.50;17.60;;;;;;;10.44;83.09;100641.69;6426727;23;20096;-65
2021/05/14 00:24:46;;;;;;;19.95;18.15;;;;;;;10.43;83.17;100646.09;6427836;23;20009;-66
2021/05/14 00:27:17;;;;;;;22.73;20.60;;;;;;;10.38;83.07;100639.59;6531447;22;20013;-66
2021/05/14 00:29:49;;;;;;;19.75;17.95;;;;;;;10.32;83.26;100642.78;6426999;23;20028;-65
2021/05/14 00:32:20;;;;;;;20.67;18.58;;;;;;;10.23;83.89;100636.53;6426695;23;20005;-65
2021/05/14 00:34:51;;;;;;;19.60;17.65;;;;;;;10.23;83.48;100642.59;6427339;23;20005;-65
2021/05/14 00:37:22;;;;;;;19.88;18.08;;;;;;;10.17;83.66;100639.66;6427716;22;20080;-65
2021/05/14 00:39:54;;;;;;;19.83;17.92;;;;;;;10.18;83.48;100636.91;6428193;23;20000;-65
2021/05/14 00:42:25;;;;;;;21.98;19.85;;;;;;;10.07;83.56;100638.78;6426175;23;20008;-66
2021/05/14 00:44:56;;;;;;;20.85;19.00;;;;;;;10.04;84.08;100637.28;6427554;22;20031;-65
2021/05/14 00:47:28;;;;;;;20.75;18.55;;;;;;;10.03;83.77;100634.78;6427256;23;20012;-65
2021/05/14 00:50:00;;;;;;;22.40;20.30;;;;;;;9.94;84.14;100634.59;6427416;23;20009;-65
2021/05/14 00:52:32;;;;;;;21.00;19.00;;;;;;;9.88;84.23;100629.88;6427505;22;20009;-65
2021/05/14 00:55:04;;;;;;;22.00;19.80;;;;;;;9.86;83.49;100631.81;6427236;22;20036;-66
2021/05/14 00:57:37;;;;;;;21.63;19.52;;;;;;;9.79;84.21;100622.84;6427831;22;20015;-65
2021/05/14 01:00:09;;;;;;;22.75;20.65;;;;;;;9.83;83.73;100636.47;6427389;22;20088;-65
2021/05/14 01:02:40;;;;;;;21.60;19.50;;;;;;;9.73;84.00;100631.19;6426964;22;20021;-65
2021/05/14 01:05:12;;;;;;;22.20;20.10;;;;;;;9.72;84.24;100622.50;6427378;23;20420;-65
2021/05/14 01:07:43;;;;;;;22.77;20.70;;;;;;;9.69;84.72;100635.03;6427730;22;20005;-65
2021/05/14 01:10:14;;;;;;;23.02;20.92;;;;;;;9.66;84.61;100624.81;6429304;23;20024;-65
2021/05/14 01:12:46;;;;;;;22.55;20.48;;;;;;;9.67;84.74;100626.50;6429091;23;20012;-65
2021/05/14 01:15:17;;;;;;;22.15;20.02;;;;;;;9.60;83.84;100626.19;6428445;23;20005;-65
2021/05/14 01:17:48;;;;;;;22.08;19.88;;;;;;;9.57;83.94;100625.59;6429258;23;20084;-65
2021/05/14 01:20:25;;;;;;;22.10;20.00;;;;;;;9.62;83.93;100628.66;6428651;23;20017;-65
2021/05/14 01:22:57;;;;;;;22.20;20.10;;;;;;;9.59;84.00;100629.75;6428658;22;20032;-65
2021/05/14 01:25:28;;;;;;;21.02;19.13;;;;;;;9.51;83.46;100634.81;6428349;23;20039;-65
2021/05/14 01:28:00;;;;;;;22.00;20.08;;;;;;;9.61;83.79;100635.66;6428287;23;20389;-65
2021/05/14 01:30:31;;;;;;;21.15;19.15;;;;;;;9.52;83.39;100640.88;6429096;23;20314;-65
2021/05/14 01:33:02;;;;;;;21.58;19.65;;;;;;;9.45;83.20;100633.50;6428232;23;20016;-65
2021/05/14 01:35:33;;;;;;;21.48;19.48;;;;;;;9.32;83.09;100645.09;6428746;23;20009;-65
2021/05/14 01:38:05;;;;;;;21.17;19.17;;;;;;;9.23;82.63;100638.88;6428920;23;20004;-65
2021/05/14 01:40:37;;;;;;;22.02;19.95;;;;;;;9.19;83.74;100630.44;6428045;23;20005;-65
2021/05/14 01:43:08;;;;;;;22.08;20.10;;;;;;;9.15;83.49;100638.66;6428678;22;20054;-65
2021/05/14 01:45:39;;;;;;;21.73;19.65;;;;;;;9.13;83.05;100636.19;6428969;23;20021;-65
2021/05/14 01:48:11;;;;;;;22.40;20.25;;;;;;;9.09;84.02;100632.19;6428505;23;20016;-65
2021/05/14 01:50:43;;;;;;;21.92;19.83;;;;;;;9.07;84.34;100625.41;6426320;22;20004;-65
2021/05/14 01:53:14;;;;;;;23.65;21.45;;;;;;;9.05;84.34;100632.53;6427916;22;20005;-65
2021/05/14 01:55:46;;;;;;;22.85;20.70;;;;;;;9.06;84.66;100627.19;6427075;23;20004;-65
2021/05/14 01:58:17;;;;;;;24.42;22.13;;;;;;;9.05;84.55;100637.75;6426545;23;20008;-65
2021/05/14 02:00:48;;;;;;;24.20;21.85;;;;;;;9.04;84.63;100631.69;6426640;23;20449;-65
2021/05/14 02:03:20;;;;;;;23.17;20.85;;;;;;;9.06;85.09;100627.19;6427464;23;20376;-65
2021/05/14 02:05:51;;;;;;;25.13;22.73;;;;;;;9.00;85.18;100633.72;6426075;23;20503;-65
2021/05/14 02:08:23;;;;;;;23.35;21.15;;;;;;;8.96;84.92;100621.88;6427776;22;20103;-65
2021/05/14 02:10:54;;;;;;;23.52;21.33;;;;;;;8.94;84.92;100626.41;6428684;22;20020;-65
2021/05/14 02:13:26;;;;;;;24.00;21.60;;;;;;;8.93;85.14;100626.53;6428442;23;20009;-65
2021/05/14 02:15:57;;;;;;;23.35;21.00;;;;;;;8.89;84.99;100622.50;6427824;22;20088;-65
2021/05/14 02:18:28;;;;;;;22.98;20.67;;;;;;;8.91;84.39;100626.66;6428667;23;20009;-65
2021/05/14 02:21:00;;;;;;;22.65;20.25;;;;;;;8.84;84.13;100625.50;6427308;23;20009;-65
2021/05/14 02:23:31;;;;;;;22.52;20.42;;;;;;;8.82;84.43;100632.59;6429069;23;20072;-65
2021/05/14 02:26:03;;;;;;;24.10;21.60;;;;;;;8.75;84.40;100621.84;6425787;22;20275;-65
2021/05/14 02:28:35;;;;;;;24.10;21.70;;;;;;;8.70;84.56;100623.97;6428570;22;20013;-66
2021/05/14 02:31:06;;;;;;;22.75;20.55;;;;;;;8.69;84.66;100630.16;6428703;23;20016;-65
2021/05/14 02:33:37;;;;;;;22.77;20.60;;;;;;;8.67;84.56;100636.47;6428259;23;20025;-65
2021/05/14 02:36:09;;;;;;;23.08;20.95;;;;;;;8.61;84.35;100624.72;6427818;23;20073;-66
2021/05/14 02:38:40;;;;;;;23.13;20.83;;;;;;;8.55;84.11;100629.59;6429033;23;20045;-65
2021/05/14 02:41:12;;;;;;;22.90;20.45;;;;;;;8.46;83.94;100626.78;6428121;23;20028;-64
2021/05/14 02:43:44;;;;;;;23.45;21.15;;;;;;;8.48;84.26;100629.25;6428520;22;20443;-65
2021/05/14 02:46:15;;;;;;;23.55;21.27;;;;;;;8.39;84.58;100622.16;6428836;23;20017;-65
2021/05/14 02:48:46;;;;;;;23.42;21.23;;;;;;;8.35;83.66;100626.78;6428902;23;20005;-65
2021/05/14 02:51:18;;;;;;;21.80;19.60;;;;;;;8.34;83.82;100629.50;6428057;23;20012;-65
2021/05/14 02:53:49;;;;;;;22.85;20.65;;;;;;;8.26;83.92;100622.28;6427253;23;20080;-65
2021/05/14 02:56:20;;;;;;;21.88;19.75;;;;;;;8.27;83.85;100629.97;6427587;23;20489;-65
2021/05/14 02:58:51;;;;;;;22.05;19.85;;;;;;;8.21;83.51;100629.63;6427483;22;20487;-66
2021/05/14 03:01:23;;;;;;;21.63;19.45;;;;;;;8.15;83.43;100628.34;6428453;23;20084;-65
2021/05/14 03:03:55;;;;;;;21.60;19.50;;;;;;;8.08;84.17;100621.94;6427290;23;20028;-65
2021/05/14 03:06:26;;;;;;;20.90;18.80;;;;;;;8.13;84.28;100626.78;6427817;23;20035;-65
2021/05/14 03:08:58;;;;;;;20.80;18.77;;;;;;;8.10;83.71;100622.63;6428663;23;20009;-65
2021/05/14 03:11:29;;;;;;;19.75;17.65;;;;;;;8.10;83.72;100627.03;6427518;22;20381;-65
2021/05/14 03:14:00;;;;;;;19.13;17.30;;;;;;;7.95;83.70;100613.38;6427760;23;20333;-66
2021/05/14 03:16:33;;;;;;;18.42;16.70;;;;;;;7.93;83.19;100620.53;6428947;23;20401;-65
2021/05/14 03:19:04;;;;;;;18.00;16.25;;;;;;;7.88;83.47;100618.28;6427677;22;20388;-65
2021/05/14 03:21:36;;;;;;;17.98;16.25;;;;;;;7.81;83.55;100622.28;6428104;23;20005;-65
2021/05/14 03:24:07;;;;;;;16.40;14.88;;;;;;;7.80;84.07;100620.63;6428351;23;20032;-66
2021/05/14 03:26:39;;;;;;;15.68;14.18;;;;;;;7.74;83.79;100621.94;6530507;22;20005;-65
2021/05/14 03:29:10;;;;;;;15.45;13.95;;;;;;;7.72;83.86;100618.59;6531595;22;20005;-65
2021/05/14 03:31:41;;;;;;;45.65;16.73;;;;;;;7.69;84.22;100618.00;6426711;23;20497;-65
2021/05/14 03:34:13;;;;;;;17.67;15.88;;;;;;;7.64;83.98;100612.31;6428215;23;20458;-66
2021/05/14 03:36:44;;;;;;;41.22;18.77;;;;;;;7.59;84.43;100612.66;6427967;22;20430;-65
2021/05/14 03:39:21;;;;;;;20.10;17.90;;;;;;;7.60;84.88;100616.09;6424828;23;20005;-65
2021/05/14 03:42:12;;;;;;;19.50;17.50;;;;;;;7.56;84.57;100611.13;6427323;23;20436;-65
2021/05/14 03:44:44;;;;;;;18.50;16.65;;;;;;;7.53;84.05;100611.34;6530604;22;20036;-65
2021/05/14 03:47:16;;;;;;;18.52;16.52;;;;;;;7.53;84.81;100615.72;6429052;23;20320;-65
2021/05/14 03:49:48;;;;;;;19.83;17.73;;;;;;;7.49;85.10;100620.34;6428391;23;20044;-66
2021/05/14 03:52:19;;;;;;;19.58;17.48;;;;;;;7.47;84.57;100617.03;6426966;22;20041;-65
2021/05/14 03:54:50;;;;;;;19.25;17.25;;;;;;;7.46;84.91;100618.00;6427434;23;20005;-65
2021/05/14 03:57:22;;;;;;;21.40;19.20;;;;;;;7.52;84.72;100612.28;6427941;23;20119;-66
2021/05/14 03:59:53;;;;;;;20.10;18.05;;;;;;;7.51;85.10;100613.25;6427548;23;20001;-65
2021/05/14 04:02:24;;;;;;;19.92;17.98;;;;;;;7.51;85.06;100620.25;6423600;22;20028;-66
2021/05/14 04:04:57;;;;;;;19.65;17.63;;;;;;;7.50;84.25;100619.41;6427351;22;20009;-66
2021/05/14 04:07:28;;;;;;;18.50;16.67;;;;;;;7.53;84.97;100611.34;6427323;23;20001;-66
2021/05/14 04:10:07;;;;;;;19.15;17.25;;;;;;;7.52;85.16;100624.50;6427455;23;20308;-66
2021/05/14 04:15:11;;;;;;;19.95;17.98;;;;;;;7.52;85.79;100633.16;6428923;22;20009;-67
2021/05/14 04:17:42;;;;;;;18.80;16.90;;;;;;;7.55;85.33;100632.91;6428424;22;20703;-66
2021/05/14 04:20:13;;;;;;;17.45;15.75;;;;;;;7.60;85.35;100634.34;6427150;23;20028;-66
2021/05/14 04:22:45;;;;;;;18.23;16.08;;;;;;;7.60;85.59;100639.56;6428364;23;20013;-66
2021/05/14 04:25:16;;;;;;;24.17;17.17;;;;;;;7.57;85.28;100641.44;6427082;23;20084;-66
2021/05/14 04:27:47;;;;;;;27.83;16.05;;;;;;;7.54;85.15;100635.66;6426930;23;20494;-66
2021/05/14 04:30:19;;;;;;;21.33;16.27;;;;;;;7.53;85.44;100634.81;6427411;23;20432;-66
2021/05/14 04:32:50;;;;;;;18.83;16.42;;;;;;;7.53;85.92;100636.59;6426353;23;20009;-66
2021/05/14 04:35:21;;;;;;;32.00;17.42;;;;;;;7.58;86.53;100644.91;6428114;23;20035;-66
2021/05/14 04:37:53;;;;;;;21.45;16.90;;;;;;;7.62;86.61;100637.69;6427163;23;20012;-66
2021/05/14 04:40:24;;;;;;;18.67;15.35;;;;;;;7.74;86.11;100637.56;6427502;22;20013;-66
2021/05/14 04:43:03;;;;;;;17.67;14.43;;;;;;;7.72;86.40;100638.63;6428361;22;20570;-67
2021/05/14 04:45:36;;;;;;;16.92;15.05;;;;;;;7.69;86.29;100636.25;6428809;22;20066;-66
2021/05/14 04:48:10;;;;;;;16.05;14.18;;;;;;;7.69;86.20;100631.03;6429177;23;20545;-68
2021/05/14 04:50:41;;;;;;;16.02;14.43;;;;;;;7.68;85.66;100640.63;6428691;23;20234;-66
2021/05/14 04:53:14;;;;;;;15.57;13.98;;;;;;;7.70;86.68;100641.38;6428192;23;20009;-64
2021/05/14 04:55:45;;;;;;;16.88;15.18;;;;;;;7.72;86.28;100638.63;6429294;22;20013;-65
2021/05/14 04:58:16;;;;;;;16.48;14.80;;;;;;;7.75;86.31;100644.44;6428201;23;20005;-65
2021/05/14 05:00:48;;;;;;;16.70;15.00;;;;;;;7.79;86.51;100639.81;6532873;22;20027;-67
2021/05/14 05:03:19;;;;;;;17.13;15.38;;;;;;;7.85;87.25;100646.38;6428429;22;20452;-66
2021/05/14 05:05:51;;;;;;;17.00;15.20;;;;;;;7.92;86.62;100643.16;6428695;23;20035;-65
2021/05/14 05:08:22;;;;;;;19.10;17.05;;;;;;;7.96;86.59;100638.56;6429399;23;20005;-65
2021/05/14 05:10:54;;;;;;;18.05;16.15;;;;;;;8.05;86.95;100649.09;6428112;23;20001;-65
2021/05/14 05:13:25;;;;;;;18.95;16.67;;;;;;;8.13;86.87;100655.50;6428282;22;20519;-64
2021/05/14 05:15:56;;;;;;;18.92;16.92;;;;;;;8.18;87.05;100654.22;6429276;23;20032;-64
2021/05/14 05:18:28;;;;;;;17.73;15.88;;;;;;;8.28;86.72;100659.53;6428492;23;20058;-65
2021/05/14 05:20:59;;;;;;;17.98;15.88;;;;;;;8.37;86.62;100663.19;6428512;23;20240;-64
2021/05/14 05:23:30;;;;;;;16.52;14.82;;;;;;;8.44;86.58;100662.63;6428841;23;20001;-65
2021/05/14 05:26:02;;;;;;;15.75;14.15;;;;;;;8.50;86.63;100662.13;6428958;23;20012;-66
2021/05/14 05:28:33;;;;;;;15.75;14.25;;;;;;;8.52;86.09;100664.63;6428945;23;20001;-65
2021/05/14 05:31:04;;;;;;;15.57;14.10;;;;;;;8.60;86.42;100659.66;6428180;23;20474;-66
2021/05/14 05:33:36;;;;;;;15.02;13.40;;;;;;;8.76;86.00;100660.06;6428841;23;20337;-66
2021/05/14 05:36:07;;;;;;;17.35;15.57;;;;;;;8.83;86.70;100660.41;6429083;23;20578;-66
2021/05/14 05:38:38;;;;;;;19.42;16.13;;;;;;;8.93;86.51;100666.53;6428230;23;20005;-66
2021/05/14 05:41:09;;;;;;;19.42;17.42;;;;;;;9.02;86.79;100673.66;6428379;23;20005;-66
2021/05/14 05:43:41;;;;;;;19.23;17.23;;;;;;;9.10;86.79;100670.41;6428462;23;20001;-66
2021/05/14 05:46:12;;;;;;;23.50;19.58;;;;;;;9.17;86.46;100665.53;6428395;23;20451;-66
2021/05/14 05:48:45;;;;;;;27.40;22.73;;;;;;;9.21;86.75;100672.16;6532894;22;20009;-66
2021/05/14 05:51:17;;;;;;;;;;;;;;;9.46;85.47;100661.31;6428532;23;20009;-66
2021/05/14 05:53:48;;;;;;;29.85;21.77;;;;;;;9.38;86.36;100663.75;6428026;23;19908;-66
2021/05/14 05:56:19;;;;;;;27.63;22.33;;;;;;;9.53;86.00;100669.47;6428259;23;20186;-66
2021/05/14 05:58:51;;;;;;;28.33;22.92;;;;;;;9.62;86.09;100671.34;6429239;23;20009;-66
2021/05/14 06:01:22;;;;;;;27.75;22.48;;;;;;;9.62;85.92;100676.59;6428312;22;20001;-66
2021/05/14 06:03:54;;;;;;;31.20;22.77;;;;;;;9.66;86.13;100670.13;6428107;23;20013;-66
2021/05/14 06:06:28;;;;;;;27.77;22.50;;;;;;;9.71;85.88;100675.81;6429033;23;20436;-65
2021/05/14 06:08:59;;;;;;;31.13;24.73;;;;;;;9.77;86.34;100679.69;6428260;23;20067;-65
2021/05/14 06:11:30;;;;;;;27.48;23.25;;;;;;;9.84;86.77;100680.81;6428112;23;20008;-65
2021/05/14 06:14:02;;;;;;;33.72;23.88;;;;;;;9.83;86.00;100680.97;6428529;23;20005;-65
2021/05/14 06:16:33;;;;;;;56.78;23.92;;;;;;;9.79;86.19;100683.00;6428331;23;20001;-65
2021/05/14 06:19:14;;;;;;;30.67;23.00;;;;;;;9.90;86.36;100680.31;6428378;23;20049;-65
2021/05/14 06:21:48;;;;;;;32.75;24.13;;;;;;;9.87;86.07;100690.22;6428291;23;20008;-65
2021/05/14 06:24:19;;;;;;;28.05;23.30;;;;;;;10.01;85.74;100687.25;6427643;22;20376;-65
2021/05/14 06:26:50;;;;;;;28.83;23.52;;;;;;;10.20;85.16;100694.38;6427514;23;20012;-65
2021/05/14 06:29:22;;;;;;;29.38;23.98;;;;;;;10.26;86.00;100696.47;6427073;23;20066;-65
2021/05/14 06:31:53;;;;;;;27.15;22.55;;;;;;;10.36;85.06;100696.53;6427425;23;20012;-65
2021/05/14 06:34:26;;;;;;;26.92;21.38;;;;;;;10.48;84.45;100695.47;6427966;23;20088;-65
2021/05/14 06:36:57;;;;;;;26.45;21.88;;;;;;;10.54;84.51;100697.56;6427550;23;20325;-65
2021/05/14 06:39:29;;;;;;;24.45;20.63;;;;;;;10.66;84.36;100698.28;6428288;23;20001;-65
2021/05/14 06:42:00;;;;;;;25.52;21.45;;;;;;;10.74;84.02;100695.00;6427577;23;20088;-65
2021/05/14 06:44:31;;;;;;;27.55;23.55;;;;;;;10.84;84.22;100701.09;6428273;23;20224;-65
2021/05/14 06:47:03;;;;;;;26.45;22.17;;;;;;;10.98;84.50;100703.28;6428259;22;20374;-65
2021/05/14 06:49:34;;;;;;;25.45;21.30;;;;;;;11.07;83.13;100701.66;6428363;22;20011;-65
2021/05/14 06:52:05;;;;;;;28.48;23.00;;;;;;;11.07;82.01;100699.03;6530731;22;20333;-65
2021/05/14 06:54:37;;;;;;;26.85;21.63;;;;;;;11.17;82.30;100699.84;6427699;23;20011;-67
2021/05/14 06:57:09;;;;;;;29.38;22.90;;;;;;;11.22;82.22;100692.44;6428243;23;20476;-65
2021/05/14 06:59:40;;;;;;;36.20;27.60;;;;;;;11.37;82.33;100701.53;6428450;23;20001;-65
2021/05/14 07:02:11;;;;;;;35.85;27.95;;;;;;;11.52;82.32;100706.38;6426746;23;20021;-65
2021/05/14 07:04:43;;;;;;;36.72;28.98;;;;;;;11.52;81.96;100698.50;6428265;23;20058;-67
2021/05/14 07:07:14;;;;;;;36.53;29.17;;;;;;;11.75;81.18;100694.59;6428788;23;20005;-68
2021/05/14 07:09:46;;;;;;;35.10;28.30;;;;;;;11.84;81.04;100701.63;6428378;23;20009;-66
2021/05/14 07:12:17;;;;;;;31.20;25.70;;;;;;;11.95;79.72;100695.38;6427021;22;20012;-66
2021/05/14 07:14:48;;;;;;;29.25;23.10;;;;;;;12.00;78.12;100695.78;6428163;23;20005;-64
2021/05/14 07:17:20;;;;;;;20.95;16.35;;;;;;;12.06;75.99;100699.66;6429094;22;20010;-67
2021/05/14 07:19:51;;;;;;;21.20;16.20;;;;;;;12.22;74.51;100694.59;6427336;22;20005;-66
2021/05/14 07:22:23;;;;;;;20.67;15.98;;;;;;;12.37;75.15;100697.59;6427568;23;20005;-66
2021/05/14 07:24:54;;;;;;;20.17;16.60;;;;;;;12.50;75.32;100697.25;6428646;22;20096;-66
2021/05/14 07:27:26;;;;;;;24.33;19.25;;;;;;;12.65;76.58;100701.03;6428058;22;20005;-66
2021/05/14 07:29:57;;;;;;;23.63;18.98;;;;;;;12.70;74.58;100708.50;6428380;23;20013;-66
2021/05/14 07:32:28;;;;;;;20.15;15.98;;;;;;;12.69;71.32;100702.41;6427848;22;20008;-66
2021/05/14 07:34:59;;;;;;;20.20;16.10;;;;;;;12.78;71.26;100705.94;6428304;23;20015;-67
2021/05/14 07:37:31;;;;;;;20.00;16.45;;;;;;;12.86;72.22;100709.50;6428520;23;20005;-66
2021/05/14 07:40:04;;;;;;;21.13;17.40;;;;;;;12.86;71.56;100708.66;6428367;23;20092;-67
2021/05/14 07:42:35;;;;;;;16.50;13.57;;;;;;;12.96;70.17;100711.25;6427991;22;20043;-66
2021/05/14 07:45:07;;;;;;;20.27;15.18;;;;;;;13.05;71.35;100718.22;6428034;23;20256;-66
2021/05/14 07:47:39;;;;;;;18.48;14.52;;;;;;;13.12;70.58;100717.47;6428046;23;20025;-67
2021/05/14 07:50:11;;;;;;;17.25;14.55;;;;;;;13.21;69.82;100720.19;6428596;23;20008;-67
2021/05/14 07:52:42;;;;;;;19.05;15.07;;;;;;;13.25;69.58;100718.94;6425843;22;20005;-67
2021/05/14 07:55:14;;;;;;;16.80;13.80;;;;;;;13.32;69.38;100720.81;6428439;23;20054;-67
2021/05/14 07:57:45;;;;;;;19.05;14.60;;;;;;;13.37;69.87;100715.94;6428067;22;20307;-66
2021/05/14 08:00:17;;;;;;;17.13;14.30;;;;;;;13.54;68.55;100710.81;6530599;22;20041;-66
2021/05/14 08:02:48;;;;;;;16.80;14.25;;;;;;;13.61;68.54;100719.75;6427512;22;20014;-67
2021/05/14 08:05:19;;;;;;;25.23;15.93;;;;;;;13.57;68.07;100724.50;6427647;23;20028;-66
2021/05/14 08:08:00;;;;;;;17.50;14.02;;;;;;;13.80;69.33;100716.94;6428669;23;20016;-67
2021/05/14 08:10:32;;;;;;;14.75;13.13;;;;;;;13.77;66.89;100719.84;6427435;22;20004;-66
2021/05/14 08:13:03;;;;;;;17.50;14.65;;;;;;;13.82;67.52;100717.59;6427665;23;20008;-66
2021/05/14 08:15:35;;;;;;;16.63;14.23;;;;;;;14.05;69.56;100722.34;6428457;23;20028;-67
2021/05/14 08:18:06;;;;;;;15.68;13.63;;;;;;;14.22;66.65;100725.91;6429033;22;20013;-67
2021/05/14 08:20:39;;;;;;;17.25;15.32;;;;;;;14.36;67.10;100717.41;6428548;23;20083;-67
2021/05/14 08:23:11;;;;;;;17.98;14.88;;;;;;;14.46;65.08;100718.09;6428639;23;20001;-67
2021/05/14 08:25:42;;;;;;;17.95;14.80;;;;;;;14.59;66.46;100725.63;6428588;23;20076;-67
2021/05/14 08:28:14;;;;;;;16.48;14.65;;;;;;;14.64;64.98;100725.97;6425290;23;20496;-66
2021/05/14 08:30:47;;;;;;;16.85;13.52;;;;;;;14.98;66.13;100722.44;6425273;22;20005;-67
2021/05/14 08:33:18;;;;;;;19.23;16.92;;;;;;;14.90;64.03;100725.06;6427674;23;20670;-67
2021/05/14 08:35:50;;;;;;;20.27;18.17;;;;;;;14.90;63.85;100717.13;6428230;23;20017;-67
2021/05/14 08:38:21;;;;;;;21.05;18.27;;;;;;;14.88;64.48;100721.72;6427491;23;20009;-67
2021/05/14 08:40:54;;;;;;;19.02;16.92;;;;;;;15.09;62.96;100730.03;6427394;22;20001;-67
2021/05/14 08:43:25;;;;;;;19.50;17.48;;;;;;;15.20;62.57;100719.16;6428073;22;20050;-67
2021/05/14 08:45:57;;;;;;;20.52;18.33;;;;;;;15.42;62.55;100723.00;6427352;23;20005;-66
2021/05/14 08:48:35;;;;;;;21.00;17.63;;;;;;;15.58;62.09;100724.78;6427769;23;20067;-67
2021/05/14 08:51:08;;;;;;;20.27;17.73;;;;;;;15.86;61.98;100727.94;6422606;22;20052;-66
2021/05/14 08:53:44;;;;;;;21.00;18.65;;;;;;;15.86;62.31;100727.09;6425302;22;20013;-66
2021/05/14 08:56:15;;;;;;;22.35;20.05;;;;;;;16.01;61.77;100717.50;6530317;22;20509;-66
2021/05/14 08:58:47;;;;;;;24.02;21.42;;;;;;;16.20;60.99;100725.03;6426887;22;20005;-66
2021/05/14 09:01:18;;;;;;;24.17;21.55;;;;;;;16.34;60.04;100726.16;6427552;23;20481;-67
2021/05/14 09:04:06;;;;;;;23.13;20.45;;;;;;;16.61;61.26;100722.25;6530822;22;20510;-67
2021/05/14 09:06:42;;;;;;;21.50;19.00;;;;;;;16.74;59.46;100719.06;6427263;22;20009;-67
2021/05/14 09:09:14;;;;;;;21.65;18.90;;;;;;;16.49;56.45;100716.53;6428468;22;20012;-67
2021/05/14 09:11:52;;;;;;;20.67;18.42;;;;;;;16.81;57.12;100716.56;6428326;22;20009;-68
2021/05/14 09:14:44;;;;;;;19.92;17.08;;;;;;;16.99;58.28;100722.41;6429491;22;20011;-66
2021/05/14 09:17:18;;;;;;;21.10;15.53;;;;;;;16.93;56.81;100723.09;6427721;22;20008;-67
2021/05/14 09:19:49;;;;;;;18.33;16.05;;;;;;;16.84;56.69;100724.16;6429445;23;20393;-67
2021/05/14 09:22:23;;;;;;;21.30;17.38;;;;;;;16.81;56.04;100719.22;6427672;23;20032;-66
2021/05/14 09:25:01;;;;;;;17.85;15.07;;;;;;;16.42;56.09;100725.31;6429434;22;20012;-66
2021/05/14 09:27:35;;;;;;;17.63;14.10;;;;;;;16.45;56.03;100724.97;6428120;22;20416;-67
2021/05/14 09:30:09;;;;;;;;;;;;;;;16.75;57.78;100721.56;6428350;22;20021;-67
2021/05/14 09:32:40;;;;;;;17.70;15.68;;;;;;;16.08;56.97;100712.38;6427052;22;19919;-67
2021/05/14 09:35:11;;;;;;;16.83;14.50;;;;;;;16.29;56.51;100715.28;6428325;23;20084;-66
2021/05/14 09:37:50;;;;;;;16.33;14.05;;;;;;;16.44;57.35;100712.72;6429501;22;20061;-66
2021/05/14 09:40:23;;;;;;;17.05;14.15;;;;;;;16.53;54.69;100724.94;6428102;22;20367;-66
2021/05/14 09:43:00;;;;;;;17.65;13.90;;;;;;;16.73;54.49;100712.13;6428398;23;20017;-66
2021/05/14 09:45:31;;;;;;;16.80;13.98;;;;;;;16.77;54.83;100714.25;6429193;22;20004;-66
2021/05/14 09:48:26;;;;;;;13.88;12.20;;;;;;;17.11;51.41;100715.72;6428303;23;20028;-66
2021/05/14 09:50:58;;;;;;;13.20;11.77;;;;;;;17.08;50.91;100718.72;6532679;22;20318;-66
2021/05/14 09:53:31;;;;;;;12.48;9.50;;;;;;;16.93;46.74;100712.53;6428404;23;20509;-66
2021/05/14 09:56:05;;;;;;;;;;;;;;;17.25;51.03;100717.59;6429807;23;20599;-67
2021/05/14 09:58:37;;;;;;;11.05;8.05;;;;;;;16.74;48.96;100717.28;6428104;23;19905;-66
2021/05/14 10:01:09;;;;;;;11.80;8.07;;;;;;;16.75;49.35;100726.84;6427005;23;19996;-66
2021/05/14 10:03:40;;;;;;;9.60;7.50;;;;;;;16.91;47.15;100714.53;6427579;23;20535;-66
2021/05/14 10:06:12;;;;;;;7.32;5.80;;;;;;;16.86;45.13;100712.41;6428530;23;20009;-66
2021/05/14 10:08:50;;;;;;;8.15;6.95;;;;;;;17.01;47.85;100712.50;6427581;23;20016;-66
2021/05/14 10:11:22;;;;;;;8.05;6.80;;;;;;;17.15;44.99;100705.59;6427985;23;20005;-66
2021/05/14 10:13:54;;;;;;;9.60;8.33;;;;;;;17.10;45.80;100708.78;6428488;23;20009;-66
2021/05/14 10:16:25;;;;;;;13.95;8.40;;;;;;;17.29;47.09;100711.97;6429618;23;20294;-66
2021/05/14 10:18:57;;;;;;;9.32;8.35;;;;;;;17.32;47.00;100708.97;6428711;22;20330;-66
2021/05/14 10:21:29;;;;;;;9.40;7.47;;;;;;;17.55;46.12;100707.13;6428631;23;20420;-67
2021/05/14 10:24:00;;;;;;;8.90;7.20;;;;;;;17.58;45.41;100712.06;6428935;22;20580;-66
2021/05/14 10:26:36;;;;;;;9.30;7.32;;;;;;;18.04;46.38;100703.22;6428990;22;20411;-66
2021/05/14 10:29:12;;;;;;;9.38;6.82;;;;;;;18.35;45.02;100700.34;6428639;23;20011;-66
2021/05/14 10:31:45;;;;;;;8.93;7.05;;;;;;;18.15;43.65;100698.25;6428081;23;20075;-67
2021/05/14 10:34:16;;;;;;;;;;;;;;;18.56;44.78;100699.59;6429593;23;20009;-65
2021/05/14 10:36:49;;;;;;;8.32;6.88;;;;;;;18.13;43.87;100702.09;6429555;23;19908;-66
2021/05/14 10:39:32;;;;;;;10.40;7.03;;;;;;;18.16;45.13;100702.56;6427474;23;20243;-66
2021/05/14 10:42:07;;;;;;;10.30;7.53;;;;;;;18.09;44.11;100692.88;6428647;23;20357;-66
2021/05/14 10:44:42;;;;;;;9.07;7.53;;;;;;;18.04;42.63;100696.06;6428371;23;20271;-66
2021/05/14 10:47:26;;;;;;;8.48;7.20;;;;;;;17.99;45.15;100698.44;6422664;23;20028;-67
2021/05/14 10:50:06;;;;;;;10.13;7.88;;;;;;;17.74;44.23;100700.50;6425816;23;20028;-66
2021/05/14 10:53:16;;;;;;;10.55;7.72;;;;;;;17.69;44.86;100702.84;6426877;22;20005;-66
2021/05/14 10:55:48;;;;;;;10.63;7.80;;;;;;;17.67;43.78;100700.38;6428620;23;20066;-66
2021/05/14 10:58:37;;;;;;;9.63;6.55;;;;;;;17.88;42.20;100691.78;6427943;23;20005;-67
2021/05/14 11:01:41;;;;;;;10.18;7.28;;;;;;;18.32;44.26;100692.75;6427183;23;20000;-67
2021/05/14 11:04:12;;;;;;;6.55;5.90;;;;;;;18.58;41.18;100687.78;6428719;22;20016;-67
2021/05/14 11:06:46;;;;;;;8.23;6.80;;;;;;;18.82;39.16;100688.47;6425835;22;20279;-67
2021/05/14 11:09:18;;;;;;;7.63;5.85;;;;;;;18.85;38.84;100682.81;6427755;22;20240;-67
2021/05/14 11:12:08;;;;;;;10.85;6.93;;;;;;;19.25;40.19;100677.91;6426135;23;20005;-67
2021/05/14 11:14:41;;;;;;;8.35;7.18;;;;;;;19.26;38.81;100677.69;6427257;22;20496;-67
2021/05/14 11:17:14;;;;;;;7.63;6.53;;;;;;;19.48;39.57;100670.53;6428051;23;20020;-67
2021/05/14 11:19:51;;;;;;;6.95;6.25;;;;;;;19.65;39.30;100674.53;6426895;23;20006;-67
2021/05/14 11:22:23;;;;;;;8.85;6.40;;;;;;;19.61;36.57;100672.44;6426370;23;20069;-67
2021/05/14 11:25:00;;;;;;;7.40;5.88;;;;;;;19.70;38.10;100676.66;6426540;23;20379;-66
2021/05/14 11:27:33;;;;;;;6.50;5.57;;;;;;;19.73;36.38;100678.06;6426332;23;20009;-67
2021/05/14 11:30:08;;;;;;;9.07;6.50;;;;;;;20.07;37.53;100677.25;6427222;23;20440;-69
2021/05/14 11:32:40;;;;;;;6.78;5.15;;;;;;;20.08;37.23;100673.59;6425975;23;20009;-66
2021/05/14 11:35:18;;;;;;;;;;;;;;;20.59;39.41;100671.38;6426373;22;20005;-65
2021/05/14 11:37:55;;;;;;;5.55;4.50;;;;;;;20.09;34.65;100669.91;6426425;22;19908;-65
2021/05/14 11:40:35;;;;;;;8.27;4.88;;;;;;;20.30;35.99;100651.19;6427382;22;20012;-66
2021/05/14 11:43:11;;;;;;;5.35;4.50;;;;;;;20.44;34.11;100661.88;6426243;23;20013;-66
2021/05/14 11:45:47;;;;;;;5.90;4.63;;;;;;;20.59;34.43;100666.06;6427198;22;20001;-66